DLH2AC ESGG-EDDF
Flight info
| Callsign | DLH2AC |
|---|---|
| Flight time | 1h 24m |
| Altitude | 35000 |
| Route | TOPLA3M TOPLA L996 ERNOV DCT NIKDA/N0451F360 DCT NOBRI DCT BUMIL DCT HLZ DCT RIMET/N0457F310 T157 KOKEB/N0418F230 T157 KERAX KERAX5A |
| Aircraft | A319/M-SDE3FGHIRWY/LB1 |
Departure
| Time | 2026-05-05 07:48 |
|---|---|
| Airport | Göteborg Landvetter Airport (ESGG) |
Arrival
| Time | 2026-05-05 09:13 |
|---|---|
| Airport | Frankfurt Main Airport (EDDF) |
| Time | Latitude | Longitude | Altitude | Speed | Heading |
|---|---|---|---|---|---|
| 2026-05-05 07:25 | 57.66727 | 12.29270 | 516 ft | 0 kts | 116° |
| 2026-05-05 07:39 | 57.66728 | 12.29268 | 516 ft | 2 kts | 116° |
| 2026-05-05 07:39 | 57.66739 | 12.29227 | 516 ft | 4 kts | 116° |
| 2026-05-05 07:40 | 57.66753 | 12.29186 | 516 ft | 4 kts | 143° |
| 2026-05-05 07:40 | 57.66775 | 12.29170 | 516 ft | 4 kts | 193° |
| 2026-05-05 07:40 | 57.66783 | 12.29174 | 516 ft | 0 kts | 205° |
| 2026-05-05 07:43 | 57.66782 | 12.29174 | 516 ft | 0 kts | 205° |
| 2026-05-05 07:43 | 57.66777 | 12.29169 | 516 ft | 3 kts | 205° |
| 2026-05-05 07:43 | 57.66770 | 12.29119 | 516 ft | 6 kts | 282° |
| 2026-05-05 07:43 | 57.66794 | 12.29023 | 516 ft | 10 kts | 297° |
| 2026-05-05 07:44 | 57.66830 | 12.28882 | 514 ft | 12 kts | 292° |
| 2026-05-05 07:44 | 57.66766 | 12.28764 | 513 ft | 16 kts | 206° |
| 2026-05-05 07:44 | 57.66651 | 12.28661 | 512 ft | 20 kts | 206° |
| 2026-05-05 07:44 | 57.66515 | 12.28535 | 512 ft | 24 kts | 203° |
| 2026-05-05 07:45 | 57.66359 | 12.28395 | 511 ft | 25 kts | 206° |
| 2026-05-05 07:45 | 57.66202 | 12.28251 | 510 ft | 25 kts | 206° |
| 2026-05-05 07:45 | 57.66044 | 12.28106 | 509 ft | 25 kts | 206° |
| 2026-05-05 07:45 | 57.65883 | 12.27961 | 507 ft | 26 kts | 206° |
| 2026-05-05 07:46 | 57.65720 | 12.27815 | 505 ft | 26 kts | 207° |
| 2026-05-05 07:46 | 57.65554 | 12.27661 | 490 ft | 27 kts | 206° |
| 2026-05-05 07:46 | 57.65382 | 12.27505 | 490 ft | 28 kts | 206° |
| 2026-05-05 07:46 | 57.65206 | 12.27345 | 496 ft | 29 kts | 206° |
| 2026-05-05 07:47 | 57.65049 | 12.27202 | 493 ft | 16 kts | 206° |
| 2026-05-05 07:47 | 57.65024 | 12.27055 | 485 ft | 14 kts | 316° |
| 2026-05-05 07:47 | 57.65112 | 12.26990 | 487 ft | 14 kts | 338° |
| 2026-05-05 07:47 | 57.65201 | 12.26994 | 491 ft | 13 kts | 27° |
| 2026-05-05 07:48 | 57.65316 | 12.27099 | 496 ft | 41 kts | 26° |
| 2026-05-05 07:48 | 57.65790 | 12.27531 | 504 ft | 108 kts | 26° |
| 2026-05-05 07:48 | 57.66628 | 12.28292 | 513 ft | 158 kts | 26° |
| 2026-05-05 07:48 | 57.67602 | 12.29182 | 1183 ft | 148 kts | 21° |
| 2026-05-05 07:49 | 57.68530 | 12.30019 | 1841 ft | 152 kts | 21° |
| 2026-05-05 07:49 | 57.69513 | 12.30917 | 2347 ft | 164 kts | 24° |
| 2026-05-05 07:49 | 57.70368 | 12.32404 | 2874 ft | 178 kts | 57° |
| 2026-05-05 07:49 | 57.70622 | 12.34735 | 3290 ft | 198 kts | 99° |
| 2026-05-05 07:50 | 57.70045 | 12.37219 | 3608 ft | 221 kts | 117° |
| 2026-05-05 07:50 | 57.69370 | 12.39917 | 4115 ft | 234 kts | 113° |
| 2026-05-05 07:50 | 57.68518 | 12.42561 | 4741 ft | 242 kts | 132° |
| 2026-05-05 07:50 | 57.67193 | 12.44531 | 5253 ft | 251 kts | 156° |
| 2026-05-05 07:51 | 57.65494 | 12.45458 | 5613 ft | 268 kts | 178° |
| 2026-05-05 07:51 | 57.63591 | 12.45896 | 6332 ft | 280 kts | 178° |
| 2026-05-05 07:51 | 57.61631 | 12.46354 | 6741 ft | 288 kts | 178° |
| 2026-05-05 07:51 | 57.59649 | 12.46538 | 7514 ft | 283 kts | 186° |
| 2026-05-05 07:52 | 57.57676 | 12.46532 | 8499 ft | 284 kts | 186° |
| 2026-05-05 07:52 | 57.55698 | 12.46567 | 9476 ft | 286 kts | 185° |
| 2026-05-05 07:52 | 57.53696 | 12.46685 | 10239 ft | 295 kts | 184° |
| 2026-05-05 07:52 | 57.51595 | 12.46840 | 10513 ft | 318 kts | 184° |
| 2026-05-05 07:53 | 57.49302 | 12.47026 | 10756 ft | 340 kts | 183° |
| 2026-05-05 07:53 | 57.46903 | 12.47236 | 11356 ft | 349 kts | 183° |
| 2026-05-05 07:53 | 57.44467 | 12.47458 | 12098 ft | 353 kts | 184° |
| 2026-05-05 07:53 | 57.42002 | 12.47680 | 12865 ft | 356 kts | 184° |
| 2026-05-05 07:54 | 57.39519 | 12.47895 | 13635 ft | 359 kts | 185° |
| 2026-05-05 07:54 | 57.37018 | 12.48101 | 14313 ft | 361 kts | 185° |
| 2026-05-05 07:54 | 57.34493 | 12.48302 | 14955 ft | 365 kts | 185° |
| 2026-05-05 07:54 | 57.31947 | 12.48506 | 15596 ft | 368 kts | 185° |
| 2026-05-05 07:55 | 57.29414 | 12.48710 | 16192 ft | 371 kts | 185° |
| 2026-05-05 07:55 | 57.26822 | 12.48917 | 16802 ft | 374 kts | 185° |
| 2026-05-05 07:55 | 57.24206 | 12.49123 | 17442 ft | 377 kts | 185° |
| 2026-05-05 07:55 | 57.21571 | 12.49328 | 18084 ft | 381 kts | 185° |
| 2026-05-05 07:56 | 57.18916 | 12.49536 | 18639 ft | 384 kts | 185° |
| 2026-05-05 07:56 | 57.16239 | 12.49750 | 19191 ft | 386 kts | 185° |
| 2026-05-05 07:56 | 57.13546 | 12.49963 | 19760 ft | 389 kts | 185° |
| 2026-05-05 07:56 | 57.10834 | 12.50177 | 20308 ft | 391 kts | 185° |
| 2026-05-05 07:57 | 57.08148 | 12.50388 | 20850 ft | 392 kts | 185° |
| 2026-05-05 07:57 | 57.05412 | 12.50601 | 21394 ft | 394 kts | 185° |
| 2026-05-05 07:57 | 57.02662 | 12.50817 | 21870 ft | 397 kts | 185° |
| 2026-05-05 07:57 | 56.99898 | 12.51036 | 22374 ft | 399 kts | 184° |
| 2026-05-05 07:58 | 56.97116 | 12.51257 | 22862 ft | 401 kts | 184° |
| 2026-05-05 07:58 | 56.94319 | 12.51478 | 23352 ft | 404 kts | 184° |
| 2026-05-05 07:58 | 56.91504 | 12.51698 | 23762 ft | 406 kts | 184° |
| 2026-05-05 07:58 | 56.88673 | 12.51914 | 24146 ft | 408 kts | 184° |
| 2026-05-05 07:59 | 56.85827 | 12.52129 | 24534 ft | 411 kts | 184° |
| 2026-05-05 07:59 | 56.83001 | 12.52344 | 24902 ft | 413 kts | 184° |
| 2026-05-05 07:59 | 56.80124 | 12.52566 | 25278 ft | 415 kts | 184° |
| 2026-05-05 07:59 | 56.77230 | 12.52793 | 25648 ft | 418 kts | 184° |
| 2026-05-05 08:00 | 56.74320 | 12.53023 | 25977 ft | 420 kts | 183° |
| 2026-05-05 08:00 | 56.71389 | 12.53254 | 26323 ft | 423 kts | 183° |
| 2026-05-05 08:00 | 56.68444 | 12.53484 | 26670 ft | 425 kts | 183° |
| 2026-05-05 08:00 | 56.65483 | 12.53712 | 27004 ft | 427 kts | 183° |
| 2026-05-05 08:01 | 56.62504 | 12.53938 | 27360 ft | 430 kts | 183° |
| 2026-05-05 08:01 | 56.59550 | 12.54159 | 27692 ft | 432 kts | 183° |
| 2026-05-05 08:01 | 56.56541 | 12.54383 | 28023 ft | 434 kts | 183° |
| 2026-05-05 08:01 | 56.53518 | 12.54608 | 28347 ft | 436 kts | 183° |
| 2026-05-05 08:02 | 56.50479 | 12.54838 | 28670 ft | 438 kts | 183° |
| 2026-05-05 08:02 | 56.47427 | 12.55074 | 28947 ft | 440 kts | 182° |
| 2026-05-05 08:02 | 56.44356 | 12.55311 | 29219 ft | 443 kts | 182° |
| 2026-05-05 08:02 | 56.41265 | 12.55548 | 29509 ft | 445 kts | 182° |
| 2026-05-05 08:03 | 56.38171 | 12.55783 | 29911 ft | 445 kts | 182° |
| 2026-05-05 08:03 | 56.35080 | 12.56012 | 30301 ft | 444 kts | 182° |
| 2026-05-05 08:03 | 56.32038 | 12.56238 | 30651 ft | 443 kts | 182° |
| 2026-05-05 08:03 | 56.28962 | 12.56471 | 31021 ft | 442 kts | 182° |
| 2026-05-05 08:04 | 56.25887 | 12.56703 | 31381 ft | 442 kts | 182° |
| 2026-05-05 08:04 | 56.22817 | 12.56936 | 31744 ft | 441 kts | 182° |
| 2026-05-05 08:04 | 56.19751 | 12.57168 | 32092 ft | 441 kts | 181° |
| 2026-05-05 08:04 | 56.16693 | 12.57280 | 32418 ft | 438 kts | 187° |
| 2026-05-05 08:05 | 56.13663 | 12.56780 | 32750 ft | 436 kts | 190° |
| 2026-05-05 08:05 | 56.10646 | 12.56192 | 33093 ft | 436 kts | 190° |
| 2026-05-05 08:05 | 56.07671 | 12.55614 | 33440 ft | 436 kts | 190° |
| 2026-05-05 08:05 | 56.04655 | 12.55034 | 33790 ft | 436 kts | 190° |
| 2026-05-05 08:06 | 56.01642 | 12.54458 | 34118 ft | 435 kts | 190° |
| 2026-05-05 08:06 | 55.98629 | 12.53883 | 34419 ft | 435 kts | 190° |
| 2026-05-05 08:06 | 55.95621 | 12.53311 | 34720 ft | 435 kts | 190° |
| 2026-05-05 08:06 | 55.92613 | 12.52747 | 35008 ft | 433 kts | 190° |
| 2026-05-05 08:07 | 55.89630 | 12.52186 | 35398 ft | 430 kts | 190° |
| 2026-05-05 08:07 | 55.86656 | 12.51624 | 35694 ft | 429 kts | 190° |
| 2026-05-05 08:07 | 55.83722 | 12.51068 | 35909 ft | 430 kts | 190° |
| 2026-05-05 08:07 | 55.80750 | 12.50504 | 35972 ft | 430 kts | 190° |
| 2026-05-05 08:08 | 55.74793 | 12.49379 | 35976 ft | 430 kts | 190° |
| 2026-05-05 08:08 | 55.68841 | 12.48266 | 35975 ft | 430 kts | 190° |
| 2026-05-05 08:09 | 55.62897 | 12.47153 | 35977 ft | 429 kts | 190° |
| 2026-05-05 08:09 | 55.57007 | 12.46047 | 35976 ft | 429 kts | 190° |
| 2026-05-05 08:10 | 55.51074 | 12.44949 | 35980 ft | 429 kts | 190° |
| 2026-05-05 08:10 | 55.45141 | 12.43846 | 35981 ft | 429 kts | 190° |
| 2026-05-05 08:11 | 55.39210 | 12.42748 | 35985 ft | 429 kts | 190° |
| 2026-05-05 08:11 | 55.33321 | 12.41663 | 35980 ft | 428 kts | 190° |
| 2026-05-05 08:12 | 55.27392 | 12.40566 | 35974 ft | 428 kts | 190° |
| 2026-05-05 08:12 | 55.21465 | 12.39460 | 35971 ft | 427 kts | 193° |
| 2026-05-05 08:13 | 55.15817 | 12.36637 | 35973 ft | 422 kts | 201° |
| 2026-05-05 08:13 | 55.10264 | 12.33527 | 35958 ft | 422 kts | 201° |
| 2026-05-05 08:14 | 55.04672 | 12.30401 | 35962 ft | 422 kts | 201° |
| 2026-05-05 08:14 | 54.99075 | 12.27292 | 35965 ft | 422 kts | 201° |
| 2026-05-05 08:15 | 54.93472 | 12.24203 | 35966 ft | 423 kts | 201° |
| 2026-05-05 08:15 | 54.87901 | 12.21130 | 35948 ft | 423 kts | 201° |
| 2026-05-05 08:16 | 54.82294 | 12.18052 | 35961 ft | 423 kts | 201° |
| 2026-05-05 08:16 | 54.76679 | 12.14993 | 35967 ft | 423 kts | 201° |
| 2026-05-05 08:17 | 54.71069 | 12.11940 | 35962 ft | 423 kts | 201° |
| 2026-05-05 08:17 | 54.65460 | 12.08881 | 35943 ft | 423 kts | 201° |
| 2026-05-05 08:18 | 54.59885 | 12.05852 | 35954 ft | 423 kts | 201° |
| 2026-05-05 08:18 | 54.54271 | 12.02801 | 35956 ft | 423 kts | 201° |
| 2026-05-05 08:19 | 54.48655 | 11.99766 | 35960 ft | 423 kts | 200° |
| 2026-05-05 08:19 | 54.43040 | 11.96750 | 35959 ft | 423 kts | 200° |
| 2026-05-05 08:20 | 54.37461 | 11.93752 | 35948 ft | 423 kts | 201° |
| 2026-05-05 08:20 | 54.31842 | 11.90749 | 35956 ft | 423 kts | 201° |
| 2026-05-05 08:21 | 54.26220 | 11.87752 | 35958 ft | 423 kts | 201° |
| 2026-05-05 08:21 | 54.20604 | 11.84755 | 35957 ft | 423 kts | 200° |
| 2026-05-05 08:22 | 54.14984 | 11.81783 | 35938 ft | 423 kts | 200° |
| 2026-05-05 08:22 | 54.09404 | 11.78830 | 35948 ft | 423 kts | 200° |
| 2026-05-05 08:23 | 54.03789 | 11.75857 | 35953 ft | 423 kts | 200° |
| 2026-05-05 08:23 | 53.98170 | 11.72902 | 35958 ft | 423 kts | 200° |
| 2026-05-05 08:24 | 53.92553 | 11.69965 | 35934 ft | 422 kts | 200° |
| 2026-05-05 08:24 | 53.86980 | 11.67059 | 35937 ft | 422 kts | 200° |
| 2026-05-05 08:25 | 53.81366 | 11.64130 | 35935 ft | 422 kts | 200° |
| 2026-05-05 08:25 | 53.75750 | 11.61201 | 35932 ft | 423 kts | 200° |
| 2026-05-05 08:26 | 53.70128 | 11.58284 | 35939 ft | 423 kts | 200° |
| 2026-05-05 08:26 | 53.64506 | 11.55377 | 35920 ft | 422 kts | 200° |
| 2026-05-05 08:27 | 53.58930 | 11.52503 | 35930 ft | 422 kts | 200° |
| 2026-05-05 08:27 | 53.53313 | 11.49609 | 35932 ft | 422 kts | 200° |
| 2026-05-05 08:28 | 53.47697 | 11.46735 | 35927 ft | 422 kts | 200° |
| 2026-05-05 08:28 | 53.42083 | 11.43875 | 35908 ft | 421 kts | 200° |
| 2026-05-05 08:29 | 53.36516 | 11.41032 | 35919 ft | 421 kts | 200° |
| 2026-05-05 08:30 | 53.28113 | 11.36747 | 35917 ft | 420 kts | 200° |
| 2026-05-05 08:30 | 53.22521 | 11.33912 | 35917 ft | 420 kts | 200° |
| 2026-05-05 08:31 | 53.16928 | 11.31083 | 35900 ft | 420 kts | 201° |
| 2026-05-05 08:31 | 53.11381 | 11.28265 | 35907 ft | 419 kts | 202° |
| 2026-05-05 08:32 | 53.05922 | 11.24890 | 35922 ft | 418 kts | 206° |
| 2026-05-05 08:32 | 53.00554 | 11.21182 | 35909 ft | 418 kts | 206° |
| 2026-05-05 08:33 | 52.95169 | 11.17513 | 35907 ft | 419 kts | 205° |
| 2026-05-05 08:33 | 52.89745 | 11.13943 | 35904 ft | 420 kts | 205° |
| 2026-05-05 08:34 | 52.84334 | 11.10434 | 35909 ft | 420 kts | 205° |
| 2026-05-05 08:34 | 52.78915 | 11.06800 | 35907 ft | 420 kts | 206° |
| 2026-05-05 08:35 | 52.73512 | 11.03110 | 35890 ft | 420 kts | 206° |
| 2026-05-05 08:35 | 52.68114 | 10.99437 | 35905 ft | 419 kts | 206° |
| 2026-05-05 08:36 | 52.62755 | 10.95819 | 35908 ft | 419 kts | 206° |
| 2026-05-05 08:36 | 52.57363 | 10.92202 | 35914 ft | 418 kts | 206° |
| 2026-05-05 08:37 | 52.51973 | 10.88596 | 35909 ft | 418 kts | 206° |
| 2026-05-05 08:37 | 52.46587 | 10.84992 | 35901 ft | 417 kts | 206° |
| 2026-05-05 08:38 | 52.41249 | 10.81427 | 35920 ft | 417 kts | 206° |
| 2026-05-05 08:38 | 52.35879 | 10.77860 | 35915 ft | 417 kts | 206° |
| 2026-05-05 08:39 | 52.30509 | 10.74301 | 35915 ft | 416 kts | 206° |
| 2026-05-05 08:39 | 52.25142 | 10.70747 | 35910 ft | 417 kts | 206° |
| 2026-05-05 08:40 | 52.19768 | 10.67199 | 35910 ft | 416 kts | 206° |
| 2026-05-05 08:40 | 52.14440 | 10.63691 | 35910 ft | 416 kts | 206° |
| 2026-05-05 08:41 | 52.09072 | 10.60158 | 35902 ft | 416 kts | 206° |
| 2026-05-05 08:41 | 52.03701 | 10.56639 | 35885 ft | 416 kts | 206° |
| 2026-05-05 08:42 | 51.98328 | 10.53134 | 35886 ft | 416 kts | 206° |
| 2026-05-05 08:42 | 51.92984 | 10.49660 | 35886 ft | 417 kts | 206° |
| 2026-05-05 08:43 | 51.87601 | 10.46164 | 35839 ft | 418 kts | 206° |
| 2026-05-05 08:43 | 51.84891 | 10.44410 | 35305 ft | 419 kts | 206° |
| 2026-05-05 08:43 | 51.82190 | 10.42665 | 34736 ft | 417 kts | 206° |
| 2026-05-05 08:43 | 51.79500 | 10.40931 | 34165 ft | 415 kts | 206° |
| 2026-05-05 08:44 | 51.76822 | 10.39200 | 33557 ft | 414 kts | 206° |
| 2026-05-05 08:44 | 51.74180 | 10.37489 | 32943 ft | 415 kts | 206° |
| 2026-05-05 08:44 | 51.71496 | 10.35755 | 32324 ft | 417 kts | 206° |
| 2026-05-05 08:44 | 51.68796 | 10.34017 | 31720 ft | 419 kts | 206° |
| 2026-05-05 08:45 | 51.66084 | 10.32274 | 31125 ft | 421 kts | 206° |
| 2026-05-05 08:45 | 51.63356 | 10.30521 | 30548 ft | 423 kts | 206° |
| 2026-05-05 08:45 | 51.60614 | 10.28759 | 29971 ft | 425 kts | 206° |
| 2026-05-05 08:45 | 51.57859 | 10.26994 | 29299 ft | 428 kts | 205° |
| 2026-05-05 08:46 | 51.55086 | 10.25223 | 28651 ft | 431 kts | 205° |
| 2026-05-05 08:46 | 51.52331 | 10.23466 | 28028 ft | 432 kts | 205° |
| 2026-05-05 08:46 | 51.49542 | 10.21689 | 27413 ft | 430 kts | 205° |
| 2026-05-05 08:46 | 51.46764 | 10.19917 | 26806 ft | 428 kts | 205° |
| 2026-05-05 08:47 | 51.44010 | 10.18162 | 26217 ft | 425 kts | 205° |
| 2026-05-05 08:47 | 51.41273 | 10.16423 | 25639 ft | 422 kts | 204° |
| 2026-05-05 08:47 | 51.38551 | 10.14699 | 25025 ft | 418 kts | 204° |
| 2026-05-05 08:47 | 51.35861 | 10.12999 | 24412 ft | 413 kts | 204° |
| 2026-05-05 08:48 | 51.33200 | 10.11323 | 23824 ft | 409 kts | 203° |
| 2026-05-05 08:48 | 51.30567 | 10.09662 | 23204 ft | 405 kts | 203° |
| 2026-05-05 08:48 | 51.27961 | 10.08017 | 22568 ft | 401 kts | 203° |
| 2026-05-05 08:48 | 51.25412 | 10.06409 | 21965 ft | 397 kts | 203° |
| 2026-05-05 08:49 | 51.22850 | 10.04795 | 21367 ft | 395 kts | 203° |
| 2026-05-05 08:49 | 51.20300 | 10.03190 | 20779 ft | 393 kts | 203° |
| 2026-05-05 08:49 | 51.17768 | 10.01597 | 20211 ft | 391 kts | 203° |
| 2026-05-05 08:49 | 51.15242 | 10.00013 | 19648 ft | 389 kts | 203° |
| 2026-05-05 08:50 | 51.12755 | 9.98457 | 19106 ft | 378 kts | 203° |
| 2026-05-05 08:50 | 51.10348 | 9.96953 | 18642 ft | 365 kts | 203° |
| 2026-05-05 08:50 | 51.08026 | 9.95505 | 18196 ft | 352 kts | 203° |
| 2026-05-05 08:50 | 51.05811 | 9.94125 | 17698 ft | 341 kts | 203° |
| 2026-05-05 08:51 | 51.03630 | 9.92764 | 17203 ft | 336 kts | 203° |
| 2026-05-05 08:51 | 51.01464 | 9.91411 | 16759 ft | 333 kts | 203° |
| 2026-05-05 08:51 | 50.99315 | 9.90072 | 16381 ft | 330 kts | 202° |
| 2026-05-05 08:51 | 50.97189 | 9.88748 | 15979 ft | 327 kts | 202° |
| 2026-05-05 08:52 | 50.95080 | 9.87437 | 15613 ft | 324 kts | 202° |
| 2026-05-05 08:52 | 50.92987 | 9.86139 | 15244 ft | 322 kts | 202° |
| 2026-05-05 08:52 | 50.90908 | 9.84849 | 14863 ft | 319 kts | 202° |
| 2026-05-05 08:52 | 50.88880 | 9.83592 | 14496 ft | 314 kts | 202° |
| 2026-05-05 08:53 | 50.87523 | 9.82751 | 14253 ft | 306 kts | 202° |
| 2026-05-05 08:53 | 50.84946 | 9.81156 | 13783 ft | 295 kts | 202° |
| 2026-05-05 08:53 | 50.83051 | 9.79984 | 13403 ft | 292 kts | 202° |
| 2026-05-05 08:53 | 50.81159 | 9.78817 | 13005 ft | 292 kts | 202° |
| 2026-05-05 08:54 | 50.79269 | 9.77652 | 12612 ft | 292 kts | 201° |
| 2026-05-05 08:54 | 50.77379 | 9.76485 | 12231 ft | 291 kts | 202° |
| 2026-05-05 08:54 | 50.75493 | 9.75319 | 11836 ft | 291 kts | 201° |
| 2026-05-05 08:54 | 50.73638 | 9.74174 | 11459 ft | 290 kts | 201° |
| 2026-05-05 08:55 | 50.71760 | 9.73033 | 11085 ft | 289 kts | 201° |
| 2026-05-05 08:55 | 50.69897 | 9.71908 | 10865 ft | 282 kts | 201° |
| 2026-05-05 08:55 | 50.68110 | 9.70830 | 10865 ft | 268 kts | 201° |
| 2026-05-05 08:55 | 50.66401 | 9.69798 | 10870 ft | 260 kts | 201° |
| 2026-05-05 08:56 | 50.64717 | 9.68781 | 10874 ft | 259 kts | 201° |
| 2026-05-05 08:56 | 50.63036 | 9.67767 | 10874 ft | 259 kts | 201° |
| 2026-05-05 08:56 | 50.61359 | 9.66739 | 10873 ft | 259 kts | 201° |
| 2026-05-05 08:56 | 50.59687 | 9.65693 | 10874 ft | 259 kts | 202° |
| 2026-05-05 08:57 | 50.58580 | 9.65001 | 10871 ft | 259 kts | 202° |
| 2026-05-05 08:57 | 50.56364 | 9.63624 | 10871 ft | 259 kts | 201° |
| 2026-05-05 08:57 | 50.54689 | 9.62593 | 10871 ft | 259 kts | 201° |
| 2026-05-05 08:57 | 50.53050 | 9.61435 | 10869 ft | 259 kts | 211° |
| 2026-05-05 08:58 | 50.51611 | 9.59734 | 10800 ft | 261 kts | 218° |
| 2026-05-05 08:58 | 50.50179 | 9.57953 | 10403 ft | 263 kts | 218° |
| 2026-05-05 08:58 | 50.48740 | 9.56165 | 10012 ft | 264 kts | 218° |
| 2026-05-05 08:58 | 50.47787 | 9.54978 | 9761 ft | 265 kts | 218° |
| 2026-05-05 08:59 | 50.46338 | 9.53173 | 9338 ft | 266 kts | 218° |
| 2026-05-05 08:59 | 50.44418 | 9.50778 | 8783 ft | 267 kts | 218° |
| 2026-05-05 08:59 | 50.42970 | 9.48975 | 8437 ft | 264 kts | 218° |
| 2026-05-05 08:59 | 50.41535 | 9.47190 | 8104 ft | 262 kts | 218° |
| 2026-05-05 09:00 | 50.40593 | 9.46019 | 7885 ft | 260 kts | 218° |
| 2026-05-05 09:00 | 50.39180 | 9.44264 | 7558 ft | 258 kts | 218° |
| 2026-05-05 09:00 | 50.37785 | 9.42528 | 7232 ft | 253 kts | 218° |
| 2026-05-05 09:00 | 50.36430 | 9.40842 | 6907 ft | 245 kts | 218° |
| 2026-05-05 09:01 | 50.35092 | 9.39275 | 6585 ft | 236 kts | 208° |
| 2026-05-05 09:01 | 50.33530 | 9.38660 | 6281 ft | 233 kts | 184° |
| 2026-05-05 09:01 | 50.31389 | 9.38645 | 5904 ft | 230 kts | 180° |
| 2026-05-05 09:01 | 50.29784 | 9.38690 | 5867 ft | 232 kts | 180° |
| 2026-05-05 09:02 | 50.28712 | 9.38723 | 5869 ft | 233 kts | 180° |
| 2026-05-05 09:02 | 50.27112 | 9.38771 | 5866 ft | 225 kts | 180° |
| 2026-05-05 09:02 | 50.25572 | 9.38584 | 5873 ft | 222 kts | 197° |
| 2026-05-05 09:02 | 50.24267 | 9.37419 | 5868 ft | 213 kts | 224° |
| 2026-05-05 09:03 | 50.23475 | 9.35493 | 5870 ft | 213 kts | 249° |
| 2026-05-05 09:03 | 50.23026 | 9.33279 | 5871 ft | 214 kts | 251° |
| 2026-05-05 09:03 | 50.22573 | 9.31051 | 5875 ft | 220 kts | 250° |
| 2026-05-05 09:03 | 50.22099 | 9.28743 | 5871 ft | 225 kts | 250° |
| 2026-05-05 09:04 | 50.21613 | 9.26380 | 5870 ft | 232 kts | 251° |
| 2026-05-05 09:04 | 50.21125 | 9.23993 | 5871 ft | 235 kts | 251° |
| 2026-05-05 09:04 | 50.20631 | 9.21566 | 5870 ft | 235 kts | 251° |
| 2026-05-05 09:04 | 50.20111 | 9.19146 | 5873 ft | 235 kts | 249° |
| 2026-05-05 09:05 | 50.19558 | 9.16748 | 5871 ft | 235 kts | 248° |
| 2026-05-05 09:05 | 50.18995 | 9.14358 | 5871 ft | 235 kts | 248° |
| 2026-05-05 09:05 | 50.18429 | 9.11967 | 5871 ft | 235 kts | 248° |
| 2026-05-05 09:05 | 50.17865 | 9.09574 | 5715 ft | 235 kts | 248° |
| 2026-05-05 09:06 | 50.17303 | 9.07185 | 5538 ft | 234 kts | 248° |
| 2026-05-05 09:06 | 50.16742 | 9.04802 | 5352 ft | 234 kts | 248° |
| 2026-05-05 09:06 | 50.16175 | 9.02431 | 5180 ft | 234 kts | 248° |
| 2026-05-05 09:06 | 50.15618 | 9.00089 | 5051 ft | 233 kts | 248° |
| 2026-05-05 09:07 | 50.15061 | 8.97714 | 4978 ft | 233 kts | 249° |
| 2026-05-05 09:07 | 50.14506 | 8.95339 | 4983 ft | 234 kts | 249° |
| 2026-05-05 09:07 | 50.13948 | 8.92959 | 4982 ft | 234 kts | 249° |
| 2026-05-05 09:07 | 50.13392 | 8.90589 | 4980 ft | 230 kts | 249° |
| 2026-05-05 09:08 | 50.12856 | 8.88305 | 4982 ft | 219 kts | 249° |
| 2026-05-05 09:08 | 50.12340 | 8.86111 | 4926 ft | 214 kts | 248° |
| 2026-05-05 09:08 | 50.11830 | 8.83943 | 4692 ft | 213 kts | 249° |
| 2026-05-05 09:08 | 50.11319 | 8.81776 | 4392 ft | 213 kts | 249° |
| 2026-05-05 09:09 | 50.10816 | 8.79640 | 4135 ft | 206 kts | 249° |
| 2026-05-05 09:09 | 50.10332 | 8.77589 | 3807 ft | 201 kts | 249° |
| 2026-05-05 09:09 | 50.09857 | 8.75580 | 3528 ft | 194 kts | 249° |
| 2026-05-05 09:09 | 50.09397 | 8.73637 | 3262 ft | 188 kts | 249° |
| 2026-05-05 09:10 | 50.08955 | 8.71767 | 2998 ft | 182 kts | 249° |
| 2026-05-05 09:10 | 50.08520 | 8.69933 | 2739 ft | 179 kts | 249° |
| 2026-05-05 09:10 | 50.08090 | 8.68120 | 2488 ft | 178 kts | 249° |
| 2026-05-05 09:10 | 50.07662 | 8.66313 | 2232 ft | 178 kts | 250° |
| 2026-05-05 09:11 | 50.07244 | 8.64554 | 1987 ft | 168 kts | 250° |
| 2026-05-05 09:11 | 50.06854 | 8.62913 | 1756 ft | 157 kts | 250° |
| 2026-05-05 09:11 | 50.06487 | 8.61369 | 1536 ft | 149 kts | 250° |
| 2026-05-05 09:11 | 50.06131 | 8.59876 | 1326 ft | 146 kts | 250° |
| 2026-05-05 09:12 | 50.05780 | 8.58402 | 1117 ft | 145 kts | 250° |
| 2026-05-05 09:12 | 50.05432 | 8.56939 | 920 ft | 144 kts | 250° |
| 2026-05-05 09:12 | 50.05085 | 8.55485 | 715 ft | 141 kts | 250° |
| 2026-05-05 09:12 | 50.04746 | 8.54063 | 515 ft | 139 kts | 250° |
| 2026-05-05 09:13 | 50.04412 | 8.52664 | 367 ft | 130 kts | 250° |
| 2026-05-05 09:13 | 50.04137 | 8.51510 | 331 ft | 90 kts | 250° |
| 2026-05-05 09:13 | 50.04025 | 8.51094 | 328 ft | 28 kts | 238° |
| 2026-05-05 09:13 | 50.03906 | 8.50923 | 324 ft | 22 kts | 224° |
| 2026-05-05 09:14 | 50.03814 | 8.50835 | 332 ft | 13 kts | 174° |
| 2026-05-05 09:14 | 50.03781 | 8.50927 | 333 ft | 12 kts | 73° |
| 2026-05-05 09:14 | 50.03820 | 8.51091 | 335 ft | 20 kts | 70° |
| 2026-05-05 09:14 | 50.03873 | 8.51311 | 335 ft | 22 kts | 69° |
| 2026-05-05 09:15 | 50.03928 | 8.51535 | 333 ft | 22 kts | 69° |
| 2026-05-05 09:15 | 50.03982 | 8.51757 | 334 ft | 22 kts | 69° |
| 2026-05-05 09:15 | 50.04032 | 8.51978 | 336 ft | 21 kts | 70° |
| 2026-05-05 09:15 | 50.04082 | 8.52187 | 342 ft | 20 kts | 70° |
| 2026-05-05 09:16 | 50.04130 | 8.52378 | 348 ft | 19 kts | 70° |
| 2026-05-05 09:16 | 50.04175 | 8.52572 | 351 ft | 21 kts | 69° |
| 2026-05-05 09:16 | 50.04234 | 8.52813 | 355 ft | 27 kts | 70° |
| 2026-05-05 09:16 | 50.04305 | 8.53111 | 359 ft | 31 kts | 70° |
| 2026-05-05 09:17 | 50.04374 | 8.53403 | 373 ft | 26 kts | 69° |
| 2026-05-05 09:17 | 50.04405 | 8.53657 | 375 ft | 24 kts | 84° |
| 2026-05-05 09:17 | 50.04422 | 8.53912 | 375 ft | 24 kts | 84° |
| 2026-05-05 09:17 | 50.04439 | 8.54168 | 375 ft | 24 kts | 84° |
| 2026-05-05 09:18 | 50.04453 | 8.54426 | 371 ft | 24 kts | 91° |
| 2026-05-05 09:18 | 50.04393 | 8.54676 | 362 ft | 25 kts | 129° |
| 2026-05-05 09:18 | 50.04254 | 8.54806 | 358 ft | 24 kts | 161° |
| 2026-05-05 09:18 | 50.04112 | 8.54885 | 353 ft | 21 kts | 160° |
| 2026-05-05 09:19 | 50.04004 | 8.54947 | 358 ft | 16 kts | 160° |
| 2026-05-05 09:19 | 50.03900 | 8.55011 | 354 ft | 14 kts | 160° |
| 2026-05-05 09:19 | 50.03850 | 8.55122 | 349 ft | 15 kts | 74° |
| 2026-05-05 09:19 | 50.03886 | 8.55269 | 353 ft | 15 kts | 69° |
| 2026-05-05 09:20 | 50.03921 | 8.55419 | 349 ft | 15 kts | 69° |
| 2026-05-05 09:20 | 50.04001 | 8.55448 | 354 ft | 13 kts | 340° |
| 2026-05-05 09:20 | 50.04087 | 8.55403 | 352 ft | 13 kts | 354° |
| 2026-05-05 09:20 | 50.04129 | 8.55491 | 354 ft | 8 kts | 94° |
| 2026-05-05 09:21 | 50.04090 | 8.55517 | 360 ft | 7 kts | 164° |
| 2026-05-05 09:21 | 50.04051 | 8.55540 | 357 ft | 5 kts | 160° |
| 2026-05-05 09:21 | 50.04041 | 8.55546 | 354 ft | 0 kts | 160° |